sensor_id;sensor_type;location;lat;lon;timestamp;temperature;humidity
6018;DHT22;3037;51.068;13.780;2023-07-31T00:00:23;15.40;1.00
6018;DHT22;3037;51.068;13.780;2023-07-31T00:02:48;15.40;1.00
6018;DHT22;3037;51.068;13.780;2023-07-31T00:05:14;15.40;99.90
6018;DHT22;3037;51.068;13.780;2023-07-31T00:07:39;15.40;1.00
6018;DHT22;3037;51.068;13.780;2023-07-31T00:10:05;15.30;99.90
6018;DHT22;3037;51.068;13.780;2023-07-31T00:12:31;15.40;1.00
6018;DHT22;3037;51.068;13.780;2023-07-31T00:14:56;15.50;1.00
6018;DHT22;3037;51.068;13.780;2023-07-31T00:17:22;15.50;99.90
6018;DHT22;3037;51.068;13.780;2023-07-31T00:19:48;15.50;1.00
6018;DHT22;3037;51.068;13.780;2023-07-31T00:22:16;15.50;1.00
6018;DHT22;3037;51.068;13.780;2023-07-31T00:24:41;15.30;1.00
6018;DHT22;3037;51.068;13.780;2023-07-31T00:27:07;15.40;99.90
6018;DHT22;3037;51.068;13.780;2023-07-31T00:29:32;15.50;99.90
6018;DHT22;3037;51.068;13.780;2023-07-31T00:31:58;15.60;99.90
6018;DHT22;3037;51.068;13.780;2023-07-31T00:34:23;15.60;1.00
6018;DHT22;3037;51.068;13.780;2023-07-31T00:36:49;15.70;1.00
6018;DHT22;3037;51.068;13.780;2023-07-31T00:39:14;15.70;99.90
6018;DHT22;3037;51.068;13.780;2023-07-31T00:41:40;15.60;99.90
6018;DHT22;3037;51.068;13.780;2023-07-31T00:44:05;15.60;1.00
6018;DHT22;3037;51.068;13.780;2023-07-31T00:46:31;15.70;1.00
6018;DHT22;3037;51.068;13.780;2023-07-31T00:48:57;15.60;1.00
6018;DHT22;3037;51.068;13.780;2023-07-31T00:51:22;15.50;99.90
6018;DHT22;3037;51.068;13.780;2023-07-31T00:53:48;15.50;91.60
6018;DHT22;3037;51.068;13.780;2023-07-31T00:56:14;15.60;1.00
6018;DHT22;3037;51.068;13.780;2023-07-31T00:58:39;15.50;1.00
6018;DHT22;3037;51.068;13.780;2023-07-31T01:01:06;15.50;99.90
6018;DHT22;3037;51.068;13.780;2023-07-31T01:03:31;15.70;99.90
6018;DHT22;3037;51.068;13.780;2023-07-31T01:06:30;15.70;1.00
6018;DHT22;3037;51.068;13.780;2023-07-31T01:09:20;15.70;1.00
6018;DHT22;3037;51.068;13.780;2023-07-31T01:12:07;15.80;1.00
6018;DHT22;3037;51.068;13.780;2023-07-31T01:14:34;15.80;1.00
6018;DHT22;3037;51.068;13.780;2023-07-31T01:17:00;15.80;1.00
6018;DHT22;3037;51.068;13.780;2023-07-31T01:19:26;15.80;1.00
6018;DHT22;3037;51.068;13.780;2023-07-31T01:27:51;16.00;99.90
6018;DHT22;3037;51.068;13.780;2023-07-31T01:30:22;16.00;1.00
6018;DHT22;3037;51.068;13.780;2023-07-31T01:32:51;16.00;99.90
6018;DHT22;3037;51.068;13.780;2023-07-31T01:35:18;16.10;99.90
6018;DHT22;3037;51.068;13.780;2023-07-31T01:37:43;16.20;99.90
6018;DHT22;3037;51.068;13.780;2023-07-31T01:40:10;16.10;1.00
6018;DHT22;3037;51.068;13.780;2023-07-31T01:42:35;16.20;1.00
6018;DHT22;3037;51.068;13.780;2023-07-31T01:45:01;16.20;99.90
6018;DHT22;3037;51.068;13.780;2023-07-31T01:47:26;16.20;1.00
6018;DHT22;3037;51.068;13.780;2023-07-31T01:49:52;16.20;1.00
6018;DHT22;3037;51.068;13.780;2023-07-31T01:52:17;16.10;99.90
6018;DHT22;3037;51.068;13.780;2023-07-31T01:54:43;16.20;1.00
6018;DHT22;3037;51.068;13.780;2023-07-31T01:57:08;16.10;1.00
6018;DHT22;3037;51.068;13.780;2023-07-31T01:59:34;16.10;99.90
6018;DHT22;3037;51.068;13.780;2023-07-31T02:01:59;16.10;99.90
6018;DHT22;3037;51.068;13.780;2023-07-31T02:04:25;16.10;99.90
6018;DHT22;3037;51.068;13.780;2023-07-31T02:06:50;16.20;1.00
6018;DHT22;3037;51.068;13.780;2023-07-31T02:09:16;16.20;1.00
6018;DHT22;3037;51.068;13.780;2023-07-31T02:11:41;16.30;1.00
6018;DHT22;3037;51.068;13.780;2023-07-31T02:14:07;16.40;1.00
6018;DHT22;3037;51.068;13.780;2023-07-31T02:16:32;16.50;1.00
6018;DHT22;3037;51.068;13.780;2023-07-31T02:18:58;16.50;1.00
6018;DHT22;3037;51.068;13.780;2023-07-31T02:21:23;16.50;1.00
6018;DHT22;3037;51.068;13.780;2023-07-31T02:23:49;16.60;1.00
6018;DHT22;3037;51.068;13.780;2023-07-31T02:26:14;16.60;1.00
6018;DHT22;3037;51.068;13.780;2023-07-31T02:28:40;16.60;1.00
6018;DHT22;3037;51.068;13.780;2023-07-31T02:31:08;16.70;1.00
6018;DHT22;3037;51.068;13.780;2023-07-31T02:33:33;16.80;1.00
6018;DHT22;3037;51.068;13.780;2023-07-31T02:35:59;16.70;1.00
6018;DHT22;3037;51.068;13.780;2023-07-31T02:38:24;16.80;1.00
6018;DHT22;3037;51.068;13.780;2023-07-31T02:40:50;16.70;1.00
6018;DHT22;3037;51.068;13.780;2023-07-31T02:43:15;16.80;1.00
6018;DHT22;3037;51.068;13.780;2023-07-31T02:45:41;16.80;1.00
6018;DHT22;3037;51.068;13.780;2023-07-31T02:48:06;16.80;1.00
6018;DHT22;3037;51.068;13.780;2023-07-31T02:50:32;16.90;1.00
6018;DHT22;3037;51.068;13.780;2023-07-31T02:52:58;16.80;1.00
6018;DHT22;3037;51.068;13.780;2023-07-31T02:55:23;16.90;1.00
6018;DHT22;3037;51.068;13.780;2023-07-31T02:57:49;16.90;1.00
6018;DHT22;3037;51.068;13.780;2023-07-31T03:00:15;16.90;1.00
6018;DHT22;3037;51.068;13.780;2023-07-31T03:02:40;16.80;1.00
6018;DHT22;3037;51.068;13.780;2023-07-31T03:05:06;16.80;1.00
6018;DHT22;3037;51.068;13.780;2023-07-31T03:07:31;16.70;1.00
6018;DHT22;3037;51.068;13.780;2023-07-31T03:09:57;16.80;1.00
6018;DHT22;3037;51.068;13.780;2023-07-31T03:12:23;16.80;1.00
6018;DHT22;3037;51.068;13.780;2023-07-31T03:14:48;17.00;1.00
6018;DHT22;3037;51.068;13.780;2023-07-31T03:17:14;17.00;1.00
6018;DHT22;3037;51.068;13.780;2023-07-31T03:19:40;17.00;1.00
6018;DHT22;3037;51.068;13.780;2023-07-31T03:22:05;17.00;1.00
6018;DHT22;3037;51.068;13.780;2023-07-31T03:24:31;17.00;1.00
6018;DHT22;3037;51.068;13.780;2023-07-31T03:26:56;16.90;1.00
6018;DHT22;3037;51.068;13.780;2023-07-31T03:29:22;17.00;1.00
6018;DHT22;3037;51.068;13.780;2023-07-31T03:31:47;16.90;1.00
6018;DHT22;3037;51.068;13.780;2023-07-31T03:34:13;17.00;1.00
6018;DHT22;3037;51.068;13.780;2023-07-31T03:36:38;17.00;1.00
6018;DHT22;3037;51.068;13.780;2023-07-31T03:39:04;17.10;1.00
6018;DHT22;3037;51.068;13.780;2023-07-31T03:41:29;17.10;1.00
6018;DHT22;3037;51.068;13.780;2023-07-31T03:43:55;17.10;1.00
6018;DHT22;3037;51.068;13.780;2023-07-31T03:46:24;17.20;1.00
6018;DHT22;3037;51.068;13.780;2023-07-31T03:48:50;17.20;1.00
6018;DHT22;3037;51.068;13.780;2023-07-31T03:51:16;17.20;1.00
6018;DHT22;3037;51.068;13.780;2023-07-31T03:53:42;17.10;1.00
6018;DHT22;3037;51.068;13.780;2023-07-31T03:56:08;17.10;99.90
6018;DHT22;3037;51.068;13.780;2023-07-31T03:58:33;17.00;1.00
6018;DHT22;3037;51.068;13.780;2023-07-31T04:01:00;17.00;99.90
6018;DHT22;3037;51.068;13.780;2023-07-31T04:03:25;17.00;99.90
6018;DHT22;3037;51.068;13.780;2023-07-31T04:05:54;16.90;1.00
6018;DHT22;3037;51.068;13.780;2023-07-31T04:08:20;17.20;1.00
6018;DHT22;3037;51.068;13.780;2023-07-31T04:10:45;16.90;99.90
6018;DHT22;3037;51.068;13.780;2023-07-31T04:13:12;16.90;99.90
6018;DHT22;3037;51.068;13.780;2023-07-31T04:15:38;16.80;1.00
6018;DHT22;3037;51.068;13.780;2023-07-31T04:18:04;16.80;99.90
6018;DHT22;3037;51.068;13.780;2023-07-31T04:20:30;16.90;99.90
6018;DHT22;3037;51.068;13.780;2023-07-31T04:22:56;16.80;1.00
6018;DHT22;3037;51.068;13.780;2023-07-31T04:25:21;16.80;1.00
6018;DHT22;3037;51.068;13.780;2023-07-31T04:27:47;16.70;6.00
6018;DHT22;3037;51.068;13.780;2023-07-31T04:30:12;16.60;1.00
6018;DHT22;3037;51.068;13.780;2023-07-31T04:32:38;16.60;99.90
6018;DHT22;3037;51.068;13.780;2023-07-31T04:35:04;16.60;1.00
6018;DHT22;3037;51.068;13.780;2023-07-31T04:37:29;16.50;1.00
6018;DHT22;3037;51.068;13.780;2023-07-31T04:39:55;16.50;99.90
6018;DHT22;3037;51.068;13.780;2023-07-31T04:42:20;16.60;99.90
6018;DHT22;3037;51.068;13.780;2023-07-31T04:44:46;16.50;1.00
6018;DHT22;3037;51.068;13.780;2023-07-31T04:47:12;16.40;1.00
6018;DHT22;3037;51.068;13.780;2023-07-31T04:49:37;16.50;1.00
6018;DHT22;3037;51.068;13.780;2023-07-31T04:52:03;16.50;1.00
6018;DHT22;3037;51.068;13.780;2023-07-31T04:54:29;16.60;99.90
6018;DHT22;3037;51.068;13.780;2023-07-31T04:56:54;16.50;99.90
6018;DHT22;3037;51.068;13.780;2023-07-31T04:59:20;16.60;1.00
6018;DHT22;3037;51.068;13.780;2023-07-31T05:01:45;16.50;1.00
6018;DHT22;3037;51.068;13.780;2023-07-31T05:04:14;16.50;1.00
6018;DHT22;3037;51.068;13.780;2023-07-31T05:06:40;16.60;1.00
6018;DHT22;3037;51.068;13.780;2023-07-31T05:09:06;16.60;1.00
6018;DHT22;3037;51.068;13.780;2023-07-31T05:11:32;16.60;8.60
6018;DHT22;3037;51.068;13.780;2023-07-31T05:13:57;16.60;99.90
6018;DHT22;3037;51.068;13.780;2023-07-31T05:16:23;16.60;99.90
6018;DHT22;3037;51.068;13.780;2023-07-31T05:18:48;16.70;1.00
6018;DHT22;3037;51.068;13.780;2023-07-31T05:21:14;16.60;99.90
6018;DHT22;3037;51.068;13.780;2023-07-31T05:23:39;16.60;99.90
6018;DHT22;3037;51.068;13.780;2023-07-31T05:26:06;16.70;1.00
6018;DHT22;3037;51.068;13.780;2023-07-31T05:28:31;16.70;1.00
6018;DHT22;3037;51.068;13.780;2023-07-31T05:31:04;16.70;1.00
6018;DHT22;3037;51.068;13.780;2023-07-31T05:33:29;16.80;1.00
6018;DHT22;3037;51.068;13.780;2023-07-31T05:35:56;16.80;1.00
6018;DHT22;3037;51.068;13.780;2023-07-31T05:38:21;16.80;99.90
6018;DHT22;3037;51.068;13.780;2023-07-31T05:40:47;16.90;1.00
6018;DHT22;3037;51.068;13.780;2023-07-31T05:43:13;16.80;74.00
6018;DHT22;3037;51.068;13.780;2023-07-31T05:45:39;16.90;1.00
6018;DHT22;3037;51.068;13.780;2023-07-31T05:48:05;16.90;1.00
6018;DHT22;3037;51.068;13.780;2023-07-31T05:50:31;17.00;99.90
6018;DHT22;3037;51.068;13.780;2023-07-31T05:52:57;17.00;1.00
6018;DHT22;3037;51.068;13.780;2023-07-31T05:55:22;17.00;1.00
6018;DHT22;3037;51.068;13.780;2023-07-31T05:57:48;17.10;99.90
6018;DHT22;3037;51.068;13.780;2023-07-31T06:00:14;17.20;39.50
6018;DHT22;3037;51.068;13.780;2023-07-31T06:02:40;17.20;1.00
6018;DHT22;3037;51.068;13.780;2023-07-31T06:05:06;17.20;1.00
6018;DHT22;3037;51.068;13.780;2023-07-31T06:07:32;17.10;1.00
6018;DHT22;3037;51.068;13.780;2023-07-31T06:09:58;17.10;1.00
6018;DHT22;3037;51.068;13.780;2023-07-31T06:12:28;17.10;1.00
6018;DHT22;3037;51.068;13.780;2023-07-31T06:14:54;17.10;1.00
6018;DHT22;3037;51.068;13.780;2023-07-31T06:17:20;17.10;99.90
6018;DHT22;3037;51.068;13.780;2023-07-31T06:19:46;17.20;33.00
6018;DHT22;3037;51.068;13.780;2023-07-31T06:22:12;17.20;99.90
6018;DHT22;3037;51.068;13.780;2023-07-31T06:24:37;17.20;1.00
6018;DHT22;3037;51.068;13.780;2023-07-31T06:27:03;17.30;1.00
6018;DHT22;3037;51.068;13.780;2023-07-31T06:29:29;17.40;1.00
6018;DHT22;3037;51.068;13.780;2023-07-31T06:31:55;17.50;1.00
6018;DHT22;3037;51.068;13.780;2023-07-31T06:34:20;17.50;1.00
6018;DHT22;3037;51.068;13.780;2023-07-31T06:36:46;17.60;99.90
6018;DHT22;3037;51.068;13.780;2023-07-31T06:39:11;17.60;99.90
6018;DHT22;3037;51.068;13.780;2023-07-31T06:41:38;17.60;99.90
6018;DHT22;3037;51.068;13.780;2023-07-31T06:44:03;17.70;99.90
6018;DHT22;3037;51.068;13.780;2023-07-31T06:46:29;17.80;1.00
6018;DHT22;3037;51.068;13.780;2023-07-31T06:48:54;17.70;99.90
6018;DHT22;3037;51.068;13.780;2023-07-31T06:51:20;17.70;99.90
6018;DHT22;3037;51.068;13.780;2023-07-31T06:53:46;17.70;1.00
6018;DHT22;3037;51.068;13.780;2023-07-31T06:56:12;17.70;99.90
6018;DHT22;3037;51.068;13.780;2023-07-31T06:58:37;17.80;1.00
6018;DHT22;3037;51.068;13.780;2023-07-31T07:01:03;17.90;1.00
6018;DHT22;3037;51.068;13.780;2023-07-31T07:03:28;18.00;1.00
6018;DHT22;3037;51.068;13.780;2023-07-31T07:05:54;18.20;1.00
6018;DHT22;3037;51.068;13.780;2023-07-31T07:08:20;18.30;99.90
6018;DHT22;3037;51.068;13.780;2023-07-31T07:10:46;18.30;1.00
6018;DHT22;3037;51.068;13.780;2023-07-31T07:13:11;18.40;99.90
6018;DHT22;3037;51.068;13.780;2023-07-31T07:15:38;18.40;1.00
6018;DHT22;3037;51.068;13.780;2023-07-31T07:18:03;18.50;1.00
6018;DHT22;3037;51.068;13.780;2023-07-31T07:20:29;18.60;1.00
6018;DHT22;3037;51.068;13.780;2023-07-31T07:22:54;18.70;1.00
6018;DHT22;3037;51.068;13.780;2023-07-31T07:25:20;18.70;1.00
6018;DHT22;3037;51.068;13.780;2023-07-31T07:27:45;18.70;41.10
6018;DHT22;3037;51.068;13.780;2023-07-31T07:30:11;18.90;99.90
6018;DHT22;3037;51.068;13.780;2023-07-31T07:32:36;19.00;99.90
6018;DHT22;3037;51.068;13.780;2023-07-31T07:35:02;19.10;99.90
6018;DHT22;3037;51.068;13.780;2023-07-31T07:37:28;19.40;99.90
6018;DHT22;3037;51.068;13.780;2023-07-31T07:39:53;19.50;1.00
6018;DHT22;3037;51.068;13.780;2023-07-31T07:42:19;19.70;1.00
6018;DHT22;3037;51.068;13.780;2023-07-31T07:44:44;19.90;99.90
6018;DHT22;3037;51.068;13.780;2023-07-31T07:47:10;20.00;1.00
6018;DHT22;3037;51.068;13.780;2023-07-31T07:49:35;20.10;99.90
6018;DHT22;3037;51.068;13.780;2023-07-31T07:52:01;20.00;1.00
6018;DHT22;3037;51.068;13.780;2023-07-31T07:54:27;19.90;1.00
6018;DHT22;3037;51.068;13.780;2023-07-31T07:56:53;19.80;1.00
6018;DHT22;3037;51.068;13.780;2023-07-31T07:59:18;19.80;1.00
6018;DHT22;3037;51.068;13.780;2023-07-31T08:01:44;19.80;1.00
6018;DHT22;3037;51.068;13.780;2023-07-31T08:04:09;19.70;42.90
6018;DHT22;3037;51.068;13.780;2023-07-31T08:06:35;19.70;75.20
6018;DHT22;3037;51.068;13.780;2023-07-31T08:09:00;19.70;1.00
6018;DHT22;3037;51.068;13.780;2023-07-31T08:11:31;19.70;1.00
6018;DHT22;3037;51.068;13.780;2023-07-31T08:13:57;19.80;1.00
6018;DHT22;3037;51.068;13.780;2023-07-31T08:16:22;19.90;1.00
6018;DHT22;3037;51.068;13.780;2023-07-31T08:18:48;20.00;19.40
6018;DHT22;3037;51.068;13.780;2023-07-31T08:21:14;20.30;99.90
6018;DHT22;3037;51.068;13.780;2023-07-31T08:23:40;20.60;1.00
6018;DHT22;3037;51.068;13.780;2023-07-31T08:26:05;20.80;1.00
6018;DHT22;3037;51.068;13.780;2023-07-31T08:28:31;20.90;1.00
6018;DHT22;3037;51.068;13.780;2023-07-31T08:30:57;21.00;1.00
6018;DHT22;3037;51.068;13.780;2023-07-31T08:33:22;20.90;1.00
6018;DHT22;3037;51.068;13.780;2023-07-31T08:35:48;20.80;1.00
6018;DHT22;3037;51.068;13.780;2023-07-31T08:38:14;20.70;1.00
6018;DHT22;3037;51.068;13.780;2023-07-31T08:40:39;20.60;1.00
6018;DHT22;3037;51.068;13.780;2023-07-31T08:43:05;20.60;1.00
6018;DHT22;3037;51.068;13.780;2023-07-31T08:45:32;20.60;1.00
6018;DHT22;3037;51.068;13.780;2023-07-31T08:47:59;20.50;1.00
6018;DHT22;3037;51.068;13.780;2023-07-31T08:50:24;20.50;1.00
6018;DHT22;3037;51.068;13.780;2023-07-31T08:52:51;20.40;1.00
6018;DHT22;3037;51.068;13.780;2023-07-31T08:55:17;20.40;1.00
6018;DHT22;3037;51.068;13.780;2023-07-31T08:57:49;20.30;1.00
6018;DHT22;3037;51.068;13.780;2023-07-31T09:00:15;20.40;1.00
6018;DHT22;3037;51.068;13.780;2023-07-31T09:03:08;20.40;1.00
6018;DHT22;3037;51.068;13.780;2023-07-31T09:05:35;20.40;1.00
6018;DHT22;3037;51.068;13.780;2023-07-31T09:08:02;20.40;1.00
6018;DHT22;3037;51.068;13.780;2023-07-31T09:10:29;20.30;1.00
6018;DHT22;3037;51.068;13.780;2023-07-31T09:12:55;20.20;1.00
6018;DHT22;3037;51.068;13.780;2023-07-31T09:15:22;20.20;1.00
6018;DHT22;3037;51.068;13.780;2023-07-31T09:17:59;20.20;1.00
6018;DHT22;3037;51.068;13.780;2023-07-31T09:20:26;20.30;1.00
6018;DHT22;3037;51.068;13.780;2023-07-31T09:22:52;20.30;1.00
6018;DHT22;3037;51.068;13.780;2023-07-31T09:25:25;20.30;1.00
6018;DHT22;3037;51.068;13.780;2023-07-31T09:27:54;20.10;1.00
6018;DHT22;3037;51.068;13.780;2023-07-31T09:30:20;20.10;1.00
6018;DHT22;3037;51.068;13.780;2023-07-31T09:32:47;20.10;1.00
6018;DHT22;3037;51.068;13.780;2023-07-31T09:35:20;20.20;1.00
6018;DHT22;3037;51.068;13.780;2023-07-31T09:37:53;20.20;1.00
6018;DHT22;3037;51.068;13.780;2023-07-31T09:40:26;20.40;1.00
6018;DHT22;3037;51.068;13.780;2023-07-31T09:42:53;20.30;1.00
6018;DHT22;3037;51.068;13.780;2023-07-31T09:45:19;20.20;1.00
6018;DHT22;3037;51.068;13.780;2023-07-31T09:47:48;20.20;1.00
6018;DHT22;3037;51.068;13.780;2023-07-31T09:50:16;20.30;1.00
6018;DHT22;3037;51.068;13.780;2023-07-31T09:52:42;20.20;1.00
6018;DHT22;3037;51.068;13.780;2023-07-31T09:55:09;20.30;1.00
6018;DHT22;3037;51.068;13.780;2023-07-31T09:57:39;20.40;1.00
6018;DHT22;3037;51.068;13.780;2023-07-31T10:00:05;20.40;1.00
6018;DHT22;3037;51.068;13.780;2023-07-31T10:02:32;20.50;1.00
6018;DHT22;3037;51.068;13.780;2023-07-31T10:04:58;20.60;1.00
6018;DHT22;3037;51.068;13.780;2023-07-31T10:07:28;20.70;1.00
6018;DHT22;3037;51.068;13.780;2023-07-31T10:09:55;20.60;1.00
6018;DHT22;3037;51.068;13.780;2023-07-31T10:12:27;20.60;1.00
6018;DHT22;3037;51.068;13.780;2023-07-31T10:14:55;20.70;1.00
6018;DHT22;3037;51.068;13.780;2023-07-31T10:17:24;20.80;1.00
6018;DHT22;3037;51.068;13.780;2023-07-31T10:19:50;20.80;1.00
6018;DHT22;3037;51.068;13.780;2023-07-31T10:22:16;20.90;1.00
6018;DHT22;3037;51.068;13.780;2023-07-31T10:24:45;20.80;1.00
6018;DHT22;3037;51.068;13.780;2023-07-31T10:27:10;20.90;1.00
6018;DHT22;3037;51.068;13.780;2023-07-31T10:29:38;20.90;1.00
6018;DHT22;3037;51.068;13.780;2023-07-31T10:32:05;20.90;1.00
6018;DHT22;3037;51.068;13.780;2023-07-31T10:34:34;20.90;1.00
6018;DHT22;3037;51.068;13.780;2023-07-31T10:37:23;21.00;1.00
6018;DHT22;3037;51.068;13.780;2023-07-31T10:40:03;21.00;1.00
6018;DHT22;3037;51.068;13.780;2023-07-31T10:42:37;21.20;1.00
6018;DHT22;3037;51.068;13.780;2023-07-31T10:45:10;21.30;1.00
6018;DHT22;3037;51.068;13.780;2023-07-31T10:47:44;21.40;1.00
6018;DHT22;3037;51.068;13.780;2023-07-31T10:50:20;21.50;1.00
6018;DHT22;3037;51.068;13.780;2023-07-31T10:52:54;21.70;1.00
6018;DHT22;3037;51.068;13.780;2023-07-31T10:55:24;21.90;1.00
6018;DHT22;3037;51.068;13.780;2023-07-31T10:57:50;22.00;1.00
6018;DHT22;3037;51.068;13.780;2023-07-31T11:00:27;22.10;1.00
6018;DHT22;3037;51.068;13.780;2023-07-31T11:03:01;22.10;1.00
6018;DHT22;3037;51.068;13.780;2023-07-31T11:05:49;22.10;1.00
6018;DHT22;3037;51.068;13.780;2023-07-31T11:08:16;22.10;1.00
6018;DHT22;3037;51.068;13.780;2023-07-31T11:10:44;22.30;1.00
6018;DHT22;3037;51.068;13.780;2023-07-31T11:13:09;22.40;1.00
6018;DHT22;3037;51.068;13.780;2023-07-31T11:15:35;22.40;1.00
6018;DHT22;3037;51.068;13.780;2023-07-31T11:18:01;22.50;1.00
6018;DHT22;3037;51.068;13.780;2023-07-31T11:20:31;22.60;1.00
6018;DHT22;3037;51.068;13.780;2023-07-31T11:23:06;22.50;1.00
6018;DHT22;3037;51.068;13.780;2023-07-31T11:25:33;22.60;1.00
6018;DHT22;3037;51.068;13.780;2023-07-31T11:28:05;22.50;1.00
6018;DHT22;3037;51.068;13.780;2023-07-31T11:30:31;22.40;1.00
6018;DHT22;3037;51.068;13.780;2023-07-31T11:32:57;22.30;1.00
6018;DHT22;3037;51.068;13.780;2023-07-31T11:35:22;22.30;1.00
6018;DHT22;3037;51.068;13.780;2023-07-31T11:37:48;22.00;1.00
6018;DHT22;3037;51.068;13.780;2023-07-31T11:40:14;22.10;1.00
6018;DHT22;3037;51.068;13.780;2023-07-31T11:42:40;22.20;1.00
6018;DHT22;3037;51.068;13.780;2023-07-31T11:45:07;22.30;1.00
6018;DHT22;3037;51.068;13.780;2023-07-31T11:47:34;22.50;1.00
6018;DHT22;3037;51.068;13.780;2023-07-31T11:50:01;22.60;1.00
6018;DHT22;3037;51.068;13.780;2023-07-31T11:52:29;22.90;1.00
6018;DHT22;3037;51.068;13.780;2023-07-31T11:54:56;23.10;1.00
6018;DHT22;3037;51.068;13.780;2023-07-31T11:57:22;23.20;1.00
6018;DHT22;3037;51.068;13.780;2023-07-31T11:59:49;23.30;1.00
6018;DHT22;3037;51.068;13.780;2023-07-31T12:02:16;23.40;1.00
6018;DHT22;3037;51.068;13.780;2023-07-31T12:04:42;23.50;1.00
6018;DHT22;3037;51.068;13.780;2023-07-31T12:07:07;23.70;1.00
6018;DHT22;3037;51.068;13.780;2023-07-31T12:09:33;23.60;1.00
6018;DHT22;3037;51.068;13.780;2023-07-31T12:11:58;23.80;1.00
6018;DHT22;3037;51.068;13.780;2023-07-31T12:14:26;24.00;1.00
6018;DHT22;3037;51.068;13.780;2023-07-31T12:16:59;24.40;1.00
6018;DHT22;3037;51.068;13.780;2023-07-31T12:19:25;24.50;1.00
6018;DHT22;3037;51.068;13.780;2023-07-31T12:21:55;24.60;1.00
6018;DHT22;3037;51.068;13.780;2023-07-31T12:24:21;24.60;1.00
6018;DHT22;3037;51.068;13.780;2023-07-31T12:26:48;24.90;1.00
6018;DHT22;3037;51.068;13.780;2023-07-31T12:29:14;25.00;1.00
6018;DHT22;3037;51.068;13.780;2023-07-31T12:31:41;25.10;1.00
6018;DHT22;3037;51.068;13.780;2023-07-31T12:34:19;24.90;1.00
6018;DHT22;3037;51.068;13.780;2023-07-31T12:36:46;24.40;1.00
6018;DHT22;3037;51.068;13.780;2023-07-31T12:39:14;24.40;1.00
6018;DHT22;3037;51.068;13.780;2023-07-31T12:41:40;24.50;1.00
6018;DHT22;3037;51.068;13.780;2023-07-31T12:44:05;25.00;1.00
6018;DHT22;3037;51.068;13.780;2023-07-31T12:46:31;25.00;1.00
6018;DHT22;3037;51.068;13.780;2023-07-31T12:48:56;25.30;1.00
6018;DHT22;3037;51.068;13.780;2023-07-31T12:51:22;25.50;1.00
6018;DHT22;3037;51.068;13.780;2023-07-31T12:53:47;25.30;1.00
6018;DHT22;3037;51.068;13.780;2023-07-31T12:56:13;25.30;1.00
6018;DHT22;3037;51.068;13.780;2023-07-31T12:58:38;25.50;1.00
6018;DHT22;3037;51.068;13.780;2023-07-31T13:01:04;25.30;1.00
6018;DHT22;3037;51.068;13.780;2023-07-31T13:03:31;25.10;1.00
6018;DHT22;3037;51.068;13.780;2023-07-31T13:05:56;25.20;1.00
6018;DHT22;3037;51.068;13.780;2023-07-31T13:08:22;25.10;1.00
6018;DHT22;3037;51.068;13.780;2023-07-31T13:10:47;25.10;1.00
6018;DHT22;3037;51.068;13.780;2023-07-31T13:13:13;25.00;1.00
6018;DHT22;3037;51.068;13.780;2023-07-31T13:15:38;25.10;1.00
6018;DHT22;3037;51.068;13.780;2023-07-31T13:18:04;25.30;1.00
6018;DHT22;3037;51.068;13.780;2023-07-31T13:20:29;25.20;1.00
6018;DHT22;3037;51.068;13.780;2023-07-31T13:22:55;24.90;1.00
6018;DHT22;3037;51.068;13.780;2023-07-31T13:25:20;24.70;1.00
6018;DHT22;3037;51.068;13.780;2023-07-31T13:27:46;24.70;1.00
6018;DHT22;3037;51.068;13.780;2023-07-31T13:30:11;24.50;1.00
6018;DHT22;3037;51.068;13.780;2023-07-31T13:32:38;24.40;1.00
6018;DHT22;3037;51.068;13.780;2023-07-31T13:35:07;24.30;1.00
6018;DHT22;3037;51.068;13.780;2023-07-31T13:37:33;24.30;1.00
6018;DHT22;3037;51.068;13.780;2023-07-31T13:39:59;24.10;1.00
6018;DHT22;3037;51.068;13.780;2023-07-31T13:42:24;24.40;1.00
6018;DHT22;3037;51.068;13.780;2023-07-31T13:44:50;24.50;1.00
6018;DHT22;3037;51.068;13.780;2023-07-31T13:47:15;24.60;1.00
6018;DHT22;3037;51.068;13.780;2023-07-31T13:49:41;24.70;1.00
6018;DHT22;3037;51.068;13.780;2023-07-31T13:52:08;24.90;1.00
6018;DHT22;3037;51.068;13.780;2023-07-31T13:54:34;25.10;1.00
6018;DHT22;3037;51.068;13.780;2023-07-31T13:57:00;25.30;1.00
6018;DHT22;3037;51.068;13.780;2023-07-31T13:59:25;25.10;1.00
6018;DHT22;3037;51.068;13.780;2023-07-31T14:01:51;25.10;1.00
6018;DHT22;3037;51.068;13.780;2023-07-31T14:04:16;25.10;1.00
6018;DHT22;3037;51.068;13.780;2023-07-31T14:06:43;24.90;1.00
6018;DHT22;3037;51.068;13.780;2023-07-31T14:09:08;24.90;1.00
6018;DHT22;3037;51.068;13.780;2023-07-31T14:11:34;24.80;1.00
6018;DHT22;3037;51.068;13.780;2023-07-31T14:14:00;25.00;1.00
6018;DHT22;3037;51.068;13.780;2023-07-31T14:16:27;24.90;1.00
6018;DHT22;3037;51.068;13.780;2023-07-31T14:18:53;24.70;1.00
6018;DHT22;3037;51.068;13.780;2023-07-31T14:21:19;24.70;1.00
6018;DHT22;3037;51.068;13.780;2023-07-31T14:23:45;24.60;1.00
6018;DHT22;3037;51.068;13.780;2023-07-31T14:26:10;24.60;1.00
6018;DHT22;3037;51.068;13.780;2023-07-31T14:28:36;24.50;1.00
6018;DHT22;3037;51.068;13.780;2023-07-31T14:31:01;24.50;1.00
6018;DHT22;3037;51.068;13.780;2023-07-31T14:33:27;24.50;1.00
6018;DHT22;3037;51.068;13.780;2023-07-31T14:35:52;24.60;1.00
6018;DHT22;3037;51.068;13.780;2023-07-31T14:38:18;24.60;1.00
6018;DHT22;3037;51.068;13.780;2023-07-31T14:40:43;25.00;1.00
6018;DHT22;3037;51.068;13.780;2023-07-31T14:43:09;25.10;1.00
6018;DHT22;3037;51.068;13.780;2023-07-31T14:45:35;24.80;1.00
6018;DHT22;3037;51.068;13.780;2023-07-31T14:48:00;24.60;1.00
6018;DHT22;3037;51.068;13.780;2023-07-31T14:50:26;24.40;1.00
6018;DHT22;3037;51.068;13.780;2023-07-31T14:52:51;24.40;1.00
6018;DHT22;3037;51.068;13.780;2023-07-31T14:55:18;24.20;1.00
6018;DHT22;3037;51.068;13.780;2023-07-31T14:57:43;24.20;1.00
6018;DHT22;3037;51.068;13.780;2023-07-31T15:00:09;24.20;1.00
6018;DHT22;3037;51.068;13.780;2023-07-31T15:02:36;24.20;1.00
6018;DHT22;3037;51.068;13.780;2023-07-31T15:05:02;24.20;1.00
6018;DHT22;3037;51.068;13.780;2023-07-31T15:07:27;24.20;1.00
6018;DHT22;3037;51.068;13.780;2023-07-31T15:09:53;24.70;1.00
6018;DHT22;3037;51.068;13.780;2023-07-31T15:12:18;24.80;1.00
6018;DHT22;3037;51.068;13.780;2023-07-31T15:14:44;24.50;1.00
6018;DHT22;3037;51.068;13.780;2023-07-31T15:17:09;24.50;1.00
6018;DHT22;3037;51.068;13.780;2023-07-31T15:19:35;24.40;1.00
6018;DHT22;3037;51.068;13.780;2023-07-31T15:22:02;24.40;1.00
6018;DHT22;3037;51.068;13.780;2023-07-31T15:24:28;24.10;1.00
6018;DHT22;3037;51.068;13.780;2023-07-31T15:26:54;23.90;1.00
6018;DHT22;3037;51.068;13.780;2023-07-31T15:29:20;23.90;1.00
6018;DHT22;3037;51.068;13.780;2023-07-31T15:31:46;23.80;1.00
6018;DHT22;3037;51.068;13.780;2023-07-31T15:34:13;23.80;1.00
6018;DHT22;3037;51.068;13.780;2023-07-31T15:36:39;23.90;1.00
6018;DHT22;3037;51.068;13.780;2023-07-31T15:39:05;23.90;1.00
6018;DHT22;3037;51.068;13.780;2023-07-31T15:41:33;23.80;1.00
6018;DHT22;3037;51.068;13.780;2023-07-31T15:43:59;23.50;1.00
6018;DHT22;3037;51.068;13.780;2023-07-31T15:46:24;23.40;1.00
6018;DHT22;3037;51.068;13.780;2023-07-31T15:48:50;23.30;1.00
6018;DHT22;3037;51.068;13.780;2023-07-31T15:51:15;23.20;1.00
6018;DHT22;3037;51.068;13.780;2023-07-31T15:53:41;23.10;1.00
6018;DHT22;3037;51.068;13.780;2023-07-31T15:56:06;23.10;1.00
6018;DHT22;3037;51.068;13.780;2023-07-31T15:58:32;23.00;1.00
6018;DHT22;3037;51.068;13.780;2023-07-31T16:00:58;23.10;1.00